createdAt,value
2023-02-26T00:00:15.951Z,1010.607286
2023-02-26T00:05:15.887Z,1010.674387
2023-02-26T00:10:15.946Z,1010.734793
2023-02-26T00:15:15.926Z,1010.818782
2023-02-26T00:20:16.098Z,1010.914903
2023-02-26T00:25:15.893Z,1010.970101
2023-02-26T00:30:15.840Z,1011.042186
2023-02-26T00:35:15.914Z,1011.099154
2023-02-26T00:40:16.027Z,1011.116684
2023-02-26T00:45:15.923Z,1011.158350
2023-02-26T00:50:16.158Z,1011.183602
2023-02-26T00:55:15.911Z,1011.247222
2023-02-26T01:00:15.979Z,1011.239686
2023-02-26T01:05:15.834Z,1011.249593
2023-02-26T01:10:15.984Z,1011.252662
2023-02-26T01:15:16.348Z,1011.268149
2023-02-26T01:20:16.124Z,1011.307774
2023-02-26T01:25:16.272Z,1011.314982
2023-02-26T01:30:16.282Z,1011.366698
2023-02-26T01:35:16.616Z,1011.373047
2023-02-26T01:40:15.955Z,1011.392649
2023-02-26T01:45:16.173Z,1011.428276
2023-02-26T01:50:16.033Z,1011.469528
2023-02-26T01:55:16.012Z,1011.512179
2023-02-26T02:00:16.015Z,1011.594355
2023-02-26T02:05:15.931Z,1011.625887
2023-02-26T02:10:16.358Z,1011.676161
2023-02-26T02:15:15.856Z,1011.729460
2023-02-26T02:20:16.161Z,1011.749471
2023-02-26T02:25:15.962Z,1011.798803
2023-02-26T02:30:16.098Z,1011.847963
2023-02-26T02:35:15.934Z,1011.893911
2023-02-26T02:40:15.843Z,1011.919119
2023-02-26T02:45:16.221Z,1011.970977
2023-02-26T02:50:15.918Z,1012.039064
2023-02-26T02:55:16.330Z,1012.106266
2023-02-26T03:00:16.116Z,1012.176723
2023-02-26T03:05:15.902Z,1012.250063
2023-02-26T03:10:16.176Z,1012.349539
2023-02-26T03:15:16.017Z,1012.402881
2023-02-26T03:20:16.580Z,1012.425948
2023-02-26T03:25:16.170Z,1012.473709
2023-02-26T03:30:16.478Z,1012.573371
2023-02-26T03:35:16.007Z,1012.622203
2023-02-26T03:40:15.984Z,1012.710004
2023-02-26T03:45:15.958Z,1012.815388
2023-02-26T03:50:15.850Z,1012.916881
2023-02-26T03:55:16.148Z,1013.035780
2023-02-26T04:00:15.884Z,1013.112331
2023-02-26T04:05:15.928Z,1013.183070
2023-02-26T04:10:15.840Z,1013.263247
2023-02-26T04:15:15.884Z,1013.297985
2023-02-26T04:20:16.111Z,1013.344821
2023-02-26T04:25:16.087Z,1013.401188
2023-02-26T04:30:15.909Z,1013.471458
2023-02-26T04:35:16.052Z,1013.559772
2023-02-26T04:40:15.783Z,1013.694731
2023-02-26T04:45:16.062Z,1013.770768
2023-02-26T04:50:15.941Z,1013.876196
2023-02-26T04:55:16.559Z,1013.920888
2023-02-26T05:00:15.911Z,1014.051894
2023-02-26T05:05:15.902Z,1014.079472
2023-02-26T05:10:16.479Z,1014.089192
2023-02-26T05:15:15.959Z,1014.187039
2023-02-26T05:20:16.046Z,1014.267773
2023-02-26T05:25:16.394Z,1014.287399
2023-02-26T05:30:16.115Z,1014.351018
2023-02-26T05:35:16.039Z,1014.438774
2023-02-26T05:40:16.220Z,1014.521833
2023-02-26T05:45:18.392Z,1014.645259
2023-02-26T05:50:18.473Z,1014.753012
2023-02-26T05:55:18.602Z,1014.821655
2023-02-26T06:00:18.372Z,1014.904342
2023-02-26T06:05:18.651Z,1014.975541
2023-02-26T06:10:18.883Z,1015.087247
2023-02-26T06:15:18.595Z,1015.185280
2023-02-26T06:20:18.896Z,1015.256991
2023-02-26T06:25:18.335Z,1015.382230
2023-02-26T06:30:18.379Z,1015.481891
2023-02-26T06:35:18.328Z,1015.535186
2023-02-26T06:40:18.674Z,1015.581645
2023-02-26T06:45:18.366Z,1015.692607
2023-02-26T06:50:18.404Z,1015.726789
2023-02-26T06:55:18.335Z,1015.752135
2023-02-26T07:00:18.365Z,1015.768505
2023-02-26T07:05:18.707Z,1015.863097
2023-02-26T07:10:18.290Z,1015.947270
2023-02-26T07:15:18.331Z,1016.053535
2023-02-26T07:20:18.563Z,1016.150637
2023-02-26T07:25:18.789Z,1016.235091
2023-02-26T07:30:18.246Z,1016.333218
2023-02-26T07:35:18.294Z,1016.449529
2023-02-26T07:40:18.346Z,1016.491343
2023-02-26T07:45:18.265Z,1016.489672
2023-02-26T07:50:18.287Z,1016.570741
2023-02-26T07:55:18.307Z,1016.639952
2023-02-26T08:00:18.705Z,1016.735199
2023-02-26T08:05:18.971Z,1016.765490
2023-02-26T08:10:18.591Z,1016.843356
2023-02-26T08:15:18.986Z,1016.768933
2023-02-26T08:20:19.337Z,1016.876561
2023-02-26T08:25:18.462Z,1016.869524
2023-02-26T08:30:18.393Z,1016.904823
2023-02-26T08:35:18.528Z,1017.018593
2023-02-26T08:40:18.274Z,1017.160826
2023-02-26T08:45:18.492Z,1017.120696
2023-02-26T08:50:18.253Z,1017.249522
2023-02-26T08:55:18.287Z,1017.345316
2023-02-26T09:00:15.772Z,1017.486833
2023-02-26T09:05:16.303Z,1017.602772
2023-02-26T09:10:16.117Z,1017.706312
2023-02-26T09:15:15.966Z,1017.778589
2023-02-26T09:20:15.943Z,1017.885525
2023-02-26T09:25:15.844Z,1017.964070
2023-02-26T09:30:15.712Z,1018.072701
2023-02-26T09:35:15.813Z,1018.162826
2023-02-26T09:40:15.769Z,1018.202718
2023-02-26T09:45:15.952Z,1018.296381
2023-02-26T09:50:15.745Z,1018.350354
2023-02-26T09:55:16.070Z,1018.403505
2023-02-26T10:00:15.824Z,1018.430406
2023-02-26T10:05:15.883Z,1018.471656
2023-02-26T10:10:16.075Z,1018.500690
2023-02-26T10:15:15.800Z,1018.554693
2023-02-26T10:20:16.795Z,1018.594409
2023-02-26T10:25:15.964Z,1018.685712
2023-02-26T10:30:15.798Z,1018.691363
2023-02-26T10:35:15.918Z,1018.709884
2023-02-26T10:40:15.824Z,1018.791224
2023-02-26T10:45:16.003Z,1018.842977
2023-02-26T10:50:16.346Z,1018.956196
2023-02-26T10:55:15.760Z,1019.006335
2023-02-26T11:00:15.849Z,1019.051542
2023-02-26T11:05:15.777Z,1019.123091
2023-02-26T11:10:15.891Z,1019.144403
2023-02-26T11:15:15.772Z,1019.215673
2023-02-26T11:20:16.477Z,1019.224660
2023-02-26T11:25:15.710Z,1019.238992
2023-02-26T11:30:15.826Z,1019.216853
2023-02-26T11:35:15.825Z,1019.290198
2023-02-26T11:40:15.671Z,1019.286608
2023-02-26T11:45:15.734Z,1019.295203
2023-02-26T11:50:15.792Z,1019.302602
2023-02-26T11:55:15.932Z,1019.377577
2023-02-26T12:00:15.827Z,1019.396157
2023-02-26T12:05:16.096Z,1019.416045
2023-02-26T12:10:15.773Z,1019.424927
2023-02-26T12:15:15.651Z,1019.476450
2023-02-26T12:20:18.434Z,1019.446472
2023-02-26T12:25:18.350Z,1019.472751
2023-02-26T12:30:18.197Z,1019.450514
2023-02-26T12:35:18.224Z,1019.426281
2023-02-26T12:40:18.716Z,1019.441517
2023-02-26T12:45:18.256Z,1019.425893
2023-02-26T12:50:18.690Z,1019.462684
2023-02-26T12:55:18.542Z,1019.520430
2023-02-26T13:00:18.323Z,1019.560358
2023-02-26T13:05:18.287Z,1019.622099
2023-02-26T13:10:18.278Z,1019.615303
2023-02-26T13:15:18.253Z,1019.598007
2023-02-26T13:20:18.990Z,1019.600889
2023-02-26T13:25:18.166Z,1019.642827
2023-02-26T13:30:18.589Z,1019.679807
2023-02-26T13:35:18.238Z,1019.645822
2023-02-26T13:40:18.252Z,1019.616754
2023-02-26T13:45:18.213Z,1019.648079
2023-02-26T13:50:18.345Z,1019.720453
2023-02-26T13:55:18.200Z,1019.782392
2023-02-26T14:00:18.243Z,1019.826764
2023-02-26T14:05:18.275Z,1019.901119
2023-02-26T14:10:18.303Z,1019.977679
2023-02-26T14:15:18.249Z,1020.069009
2023-02-26T14:20:18.515Z,1020.060249
2023-02-26T14:25:18.179Z,1020.022798
2023-02-26T14:30:18.485Z,1020.030140
2023-02-26T14:35:18.120Z,1020.030069
2023-02-26T14:40:18.631Z,1020.043864
2023-02-26T14:45:18.307Z,1020.132017
2023-02-26T14:50:18.271Z,1020.156038
2023-02-26T14:55:18.317Z,1020.219640
2023-02-26T15:00:18.499Z,1020.223072
2023-02-26T15:05:18.774Z,1020.238012
2023-02-26T15:10:18.277Z,1020.251029
2023-02-26T15:15:18.304Z,1020.223323
2023-02-26T15:20:18.493Z,1020.264412
2023-02-26T15:25:19.908Z,1020.246455
2023-02-26T15:30:18.267Z,1020.242704
2023-02-26T15:40:18.394Z,1020.253480
2023-02-26T15:45:18.259Z,1020.288352
2023-02-26T15:50:18.145Z,1020.343711
2023-02-26T15:55:18.256Z,1020.374258
2023-02-26T16:00:18.125Z,1020.393228
2023-02-26T16:05:18.627Z,1020.470169
2023-02-26T16:10:18.088Z,1020.520143
2023-02-26T16:15:18.265Z,1020.531044
2023-02-26T16:20:18.435Z,1020.637841
2023-02-26T16:25:18.254Z,1020.703326
2023-02-26T16:30:18.206Z,1020.745644
2023-02-26T16:35:18.060Z,1020.801741
2023-02-26T16:40:18.047Z,1020.870379
2023-02-26T16:45:18.240Z,1020.929889
2023-02-26T16:50:18.099Z,1021.011150
2023-02-26T16:55:18.536Z,1021.133296
2023-02-26T17:00:18.288Z,1021.255966
2023-02-26T17:05:18.830Z,1021.373614
2023-02-26T17:10:18.772Z,1021.475704
2023-02-26T17:15:18.268Z,1021.616240
2023-02-26T17:20:18.461Z,1021.698607
2023-02-26T17:25:18.394Z,1021.731352
2023-02-26T17:30:18.770Z,1021.765179
2023-02-26T17:35:18.228Z,1021.868642
2023-02-26T17:40:18.152Z,1021.903097
2023-02-26T17:45:18.042Z,1021.995074
2023-02-26T17:50:18.032Z,1022.048452
2023-02-26T17:55:18.243Z,1022.104253
2023-02-26T18:00:18.461Z,1022.185213
2023-02-26T18:05:18.184Z,1022.240598
2023-02-26T18:10:18.131Z,1022.324628
2023-02-26T18:15:18.218Z,1022.474089
2023-02-26T18:20:18.508Z,1022.556444
2023-02-26T18:25:18.102Z,1022.620661
2023-02-26T18:30:18.074Z,1022.655583
2023-02-26T18:35:18.185Z,1022.636748
2023-02-26T18:40:18.051Z,1022.650605
2023-02-26T18:45:18.058Z,1022.707665
2023-02-26T18:50:18.108Z,1022.776438
2023-02-26T18:55:18.050Z,1022.821638
2023-02-26T19:00:18.124Z,1022.913711
2023-02-26T19:05:18.068Z,1022.994997
2023-02-26T19:10:18.157Z,1023.091496
2023-02-26T19:15:17.945Z,1023.133105
2023-02-26T19:20:18.671Z,1023.234259
2023-02-26T19:25:18.177Z,1023.287235
2023-02-26T19:30:18.317Z,1023.355139
2023-02-26T19:35:18.632Z,1023.438530
2023-02-26T19:40:18.127Z,1023.469009
2023-02-26T19:45:18.076Z,1023.555849
2023-02-26T19:50:18.039Z,1023.662420
2023-02-26T19:55:18.005Z,1023.759279
2023-02-26T20:00:18.176Z,1023.796720
2023-02-26T20:05:18.203Z,1023.882867
2023-02-26T20:10:18.063Z,1023.965449
2023-02-26T20:15:18.269Z,1024.059013
2023-02-26T20:20:18.549Z,1024.129521
2023-02-26T20:25:18.490Z,1024.203110
2023-02-26T20:30:18.088Z,1024.298610
2023-02-26T20:35:18.032Z,1024.406793
2023-02-26T20:40:18.318Z,1024.415089
2023-02-26T20:45:18.039Z,1024.448279
2023-02-26T20:50:17.970Z,1024.509556
2023-02-26T20:55:20.462Z,1024.548717
2023-02-26T21:00:18.006Z,1024.573656
2023-02-26T21:05:18.029Z,1024.575192
2023-02-26T21:10:18.001Z,1024.616654
2023-02-26T21:15:18.132Z,1024.663547
2023-02-26T21:20:18.401Z,1024.752829
2023-02-26T21:25:18.615Z,1024.765891
2023-02-26T21:30:18.322Z,1024.818762
2023-02-26T21:35:19.023Z,1024.832642
2023-02-26T21:40:18.043Z,1024.882927
2023-02-26T21:45:18.064Z,1024.943821
2023-02-26T21:50:18.766Z,1025.019016
2023-02-26T21:55:17.949Z,1025.038393
2023-02-26T22:00:17.998Z,1025.070347
2023-02-26T22:05:18.318Z,1025.104045
2023-02-26T22:10:17.975Z,1025.080155
2023-02-26T22:15:18.332Z,1025.105680
2023-02-26T22:20:18.348Z,1025.170732
2023-02-26T22:25:18.061Z,1025.228858
2023-02-26T22:30:18.024Z,1025.273539
2023-02-26T22:35:17.960Z,1025.346204
2023-02-26T22:40:18.034Z,1025.421563
2023-02-26T22:45:17.987Z,1025.455688
2023-02-26T22:50:18.297Z,1025.470358
2023-02-26T22:55:17.915Z,1025.491150
2023-02-26T23:00:18.070Z,1025.497680
2023-02-26T23:05:18.412Z,1025.499310
2023-02-26T23:10:17.958Z,1025.469217
2023-02-26T23:15:18.161Z,1025.499401
2023-02-26T23:20:18.625Z,1025.507282
2023-02-26T23:25:18.249Z,1025.523335
2023-02-26T23:30:18.201Z,1025.506414
2023-02-26T23:35:18.789Z,1025.541792
2023-02-26T23:40:17.890Z,1025.566212
2023-02-26T23:45:18.726Z,1025.580055
2023-02-26T23:50:18.020Z,1025.630719
2023-02-26T23:55:17.997Z,1025.646584
